sensor_id;sensor_type;location;lat;lon;timestamp;temperature;humidity
6520;DHT22;3293;51.690;5.982;2022-10-15T00:02:08;11.40;99.90
6520;DHT22;3293;51.690;5.982;2022-10-15T00:07:08;11.30;99.90
6520;DHT22;3293;51.690;5.982;2022-10-15T00:12:09;11.10;99.90
6520;DHT22;3293;51.690;5.982;2022-10-15T00:17:09;11.00;99.90
6520;DHT22;3293;51.690;5.982;2022-10-15T00:22:09;10.90;99.90
6520;DHT22;3293;51.690;5.982;2022-10-15T00:27:08;10.80;99.90
6520;DHT22;3293;51.690;5.982;2022-10-15T00:32:08;10.70;99.90
6520;DHT22;3293;51.690;5.982;2022-10-15T00:37:09;10.60;99.90
6520;DHT22;3293;51.690;5.982;2022-10-15T00:42:10;10.50;99.90
6520;DHT22;3293;51.690;5.982;2022-10-15T00:52:20;10.40;99.90
6520;DHT22;3293;51.690;5.982;2022-10-15T00:57:23;10.30;99.90
6520;DHT22;3293;51.690;5.982;2022-10-15T01:02:23;10.20;99.90
6520;DHT22;3293;51.690;5.982;2022-10-15T01:07:23;10.10;99.90
6520;DHT22;3293;51.690;5.982;2022-10-15T01:18:07;10.00;99.90
6520;DHT22;3293;51.690;5.982;2022-10-15T01:34:00;10.00;99.90
6520;DHT22;3293;51.690;5.982;2022-10-15T01:39:09;10.00;99.90
6520;DHT22;3293;51.690;5.982;2022-10-15T01:44:19;10.00;99.90
6520;DHT22;3293;51.690;5.982;2022-10-15T01:49:22;10.20;99.90
6520;DHT22;3293;51.690;5.982;2022-10-15T01:54:26;10.20;99.90
6520;DHT22;3293;51.690;5.982;2022-10-15T01:59:29;10.30;99.90
6520;DHT22;3293;51.690;5.982;2022-10-15T02:04:31;10.50;99.90
6520;DHT22;3293;51.690;5.982;2022-10-15T02:20:27;11.00;99.90
6520;DHT22;3293;51.690;5.982;2022-10-15T02:25:29;11.10;99.90
6520;DHT22;3293;51.690;5.982;2022-10-15T02:30:30;11.20;99.90
6520;DHT22;3293;51.690;5.982;2022-10-15T02:35:31;11.40;99.90
6520;DHT22;3293;51.690;5.982;2022-10-15T02:40:34;11.40;99.90
6520;DHT22;3293;51.690;5.982;2022-10-15T02:45:36;11.50;99.90
6520;DHT22;3293;51.690;5.982;2022-10-15T02:50:36;11.50;99.90
6520;DHT22;3293;51.690;5.982;2022-10-15T02:55:36;11.50;99.90
6520;DHT22;3293;51.690;5.982;2022-10-15T03:00:36;11.50;99.90
6520;DHT22;3293;51.690;5.982;2022-10-15T03:05:36;11.50;99.90
6520;DHT22;3293;51.690;5.982;2022-10-15T03:10:36;11.60;99.90
6520;DHT22;3293;51.690;5.982;2022-10-15T03:15:36;11.60;99.90
6520;DHT22;3293;51.690;5.982;2022-10-15T03:20:36;11.60;99.90
6520;DHT22;3293;51.690;5.982;2022-10-15T03:25:36;11.70;99.90
6520;DHT22;3293;51.690;5.982;2022-10-15T03:30:36;11.70;99.90
6520;DHT22;3293;51.690;5.982;2022-10-15T03:35:37;11.60;99.90
6520;DHT22;3293;51.690;5.982;2022-10-15T03:40:37;11.50;99.90
6520;DHT22;3293;51.690;5.982;2022-10-15T03:45:37;11.40;99.90
6520;DHT22;3293;51.690;5.982;2022-10-15T03:50:37;11.30;99.90
6520;DHT22;3293;51.690;5.982;2022-10-15T03:55:37;11.20;99.90
6520;DHT22;3293;51.690;5.982;2022-10-15T04:00:40;11.30;99.90
6520;DHT22;3293;51.690;5.982;2022-10-15T04:05:41;11.30;99.90
6520;DHT22;3293;51.690;5.982;2022-10-15T04:10:41;11.40;99.90
6520;DHT22;3293;51.690;5.982;2022-10-15T04:15:41;11.50;99.90
6520;DHT22;3293;51.690;5.982;2022-10-15T04:20:41;11.50;99.90
6520;DHT22;3293;51.690;5.982;2022-10-15T04:25:41;11.60;99.90
6520;DHT22;3293;51.690;5.982;2022-10-15T04:30:41;11.60;99.90
6520;DHT22;3293;51.690;5.982;2022-10-15T04:35:41;11.50;99.90
6520;DHT22;3293;51.690;5.982;2022-10-15T04:40:41;11.60;99.90
6520;DHT22;3293;51.690;5.982;2022-10-15T04:45:41;11.70;99.90
6520;DHT22;3293;51.690;5.982;2022-10-15T04:50:41;11.80;99.90
6520;DHT22;3293;51.690;5.982;2022-10-15T04:55:41;12.00;99.90
6520;DHT22;3293;51.690;5.982;2022-10-15T05:00:41;12.00;99.90
6520;DHT22;3293;51.690;5.982;2022-10-15T05:05:41;12.00;99.90
6520;DHT22;3293;51.690;5.982;2022-10-15T05:10:41;12.10;99.90
6520;DHT22;3293;51.690;5.982;2022-10-15T05:15:41;12.10;99.90
6520;DHT22;3293;51.690;5.982;2022-10-15T05:20:41;12.10;99.90
6520;DHT22;3293;51.690;5.982;2022-10-15T05:25:41;12.10;99.90
6520;DHT22;3293;51.690;5.982;2022-10-15T05:30:41;12.20;99.90
6520;DHT22;3293;51.690;5.982;2022-10-15T05:35:41;12.30;99.90
6520;DHT22;3293;51.690;5.982;2022-10-15T05:40:46;12.40;99.90
6520;DHT22;3293;51.690;5.982;2022-10-15T05:45:46;12.50;99.90
6520;DHT22;3293;51.690;5.982;2022-10-15T05:50:46;12.60;99.90
6520;DHT22;3293;51.690;5.982;2022-10-15T05:55:46;12.60;99.90
6520;DHT22;3293;51.690;5.982;2022-10-15T06:00:56;12.70;99.90
6520;DHT22;3293;51.690;5.982;2022-10-15T06:05:56;12.70;99.90
6520;DHT22;3293;51.690;5.982;2022-10-15T06:11:01;12.70;99.90
6520;DHT22;3293;51.690;5.982;2022-10-15T06:16:03;12.80;99.90
6520;DHT22;3293;51.690;5.982;2022-10-15T06:21:04;12.80;99.90
6520;DHT22;3293;51.690;5.982;2022-10-15T06:26:09;12.80;99.90
6520;DHT22;3293;51.690;5.982;2022-10-15T06:31:09;12.80;99.90
6520;DHT22;3293;51.690;5.982;2022-10-15T06:36:10;12.90;99.90
6520;DHT22;3293;51.690;5.982;2022-10-15T06:41:10;12.90;99.90
6520;DHT22;3293;51.690;5.982;2022-10-15T06:46:10;12.90;99.90
6520;DHT22;3293;51.690;5.982;2022-10-15T06:51:10;12.90;99.90
6520;DHT22;3293;51.690;5.982;2022-10-15T06:56:10;13.00;99.90
6520;DHT22;3293;51.690;5.982;2022-10-15T07:01:10;13.00;99.90
6520;DHT22;3293;51.690;5.982;2022-10-15T07:06:10;13.10;99.90
6520;DHT22;3293;51.690;5.982;2022-10-15T07:11:11;13.30;99.90
6520;DHT22;3293;51.690;5.982;2022-10-15T07:16:11;13.40;99.90
6520;DHT22;3293;51.690;5.982;2022-10-15T07:21:11;13.40;99.90
6520;DHT22;3293;51.690;5.982;2022-10-15T07:26:11;13.60;99.90
6520;DHT22;3293;51.690;5.982;2022-10-15T07:31:11;13.80;99.90
6520;DHT22;3293;51.690;5.982;2022-10-15T07:36:11;14.10;99.90
6520;DHT22;3293;51.690;5.982;2022-10-15T07:41:11;14.40;99.90
6520;DHT22;3293;51.690;5.982;2022-10-15T07:46:12;14.40;99.90
6520;DHT22;3293;51.690;5.982;2022-10-15T07:51:12;14.30;99.90
6520;DHT22;3293;51.690;5.982;2022-10-15T07:56:13;14.20;99.90
6520;DHT22;3293;51.690;5.982;2022-10-15T08:01:13;14.30;99.90
6520;DHT22;3293;51.690;5.982;2022-10-15T08:06:14;14.50;99.90
6520;DHT22;3293;51.690;5.982;2022-10-15T08:11:15;14.70;99.90
6520;DHT22;3293;51.690;5.982;2022-10-15T08:16:15;14.80;99.90
6520;DHT22;3293;51.690;5.982;2022-10-15T08:21:16;14.80;99.90
6520;DHT22;3293;51.690;5.982;2022-10-15T08:26:16;14.80;99.90
6520;DHT22;3293;51.690;5.982;2022-10-15T08:31:15;15.00;99.90
6520;DHT22;3293;51.690;5.982;2022-10-15T08:36:17;15.30;99.90
6520;DHT22;3293;51.690;5.982;2022-10-15T08:41:28;15.50;99.90
6520;DHT22;3293;51.690;5.982;2022-10-15T08:46:37;15.80;99.90
6520;DHT22;3293;51.690;5.982;2022-10-15T08:51:52;16.10;99.90
6520;DHT22;3293;51.690;5.982;2022-10-15T08:57:06;16.30;99.90
6520;DHT22;3293;51.690;5.982;2022-10-15T09:02:25;16.50;99.90
6520;DHT22;3293;51.690;5.982;2022-10-15T09:07:46;16.40;99.90
6520;DHT22;3293;51.690;5.982;2022-10-15T09:13:02;16.60;99.90
6520;DHT22;3293;51.690;5.982;2022-10-15T09:18:03;16.80;99.90
6520;DHT22;3293;51.690;5.982;2022-10-15T09:23:12;16.80;99.90
6520;DHT22;3293;51.690;5.982;2022-10-15T09:28:16;16.90;99.90
6520;DHT22;3293;51.690;5.982;2022-10-15T09:33:31;16.90;99.90
6520;DHT22;3293;51.690;5.982;2022-10-15T09:38:52;17.00;99.90
6520;DHT22;3293;51.690;5.982;2022-10-15T09:43:56;16.90;99.90
6520;DHT22;3293;51.690;5.982;2022-10-15T09:54:11;16.50;99.90
6520;DHT22;3293;51.690;5.982;2022-10-15T09:59:16;16.40;99.90
6520;DHT22;3293;51.690;5.982;2022-10-15T10:04:19;16.40;99.90
6520;DHT22;3293;51.690;5.982;2022-10-15T10:09:27;16.30;99.90
6520;DHT22;3293;51.690;5.982;2022-10-15T10:14:32;16.10;99.90
6520;DHT22;3293;51.690;5.982;2022-10-15T10:19:32;16.00;99.90
6520;DHT22;3293;51.690;5.982;2022-10-15T10:24:32;16.00;99.90
6520;DHT22;3293;51.690;5.982;2022-10-15T10:29:38;15.90;99.90
6520;DHT22;3293;51.690;5.982;2022-10-15T10:34:42;16.00;99.90
6520;DHT22;3293;51.690;5.982;2022-10-15T10:39:42;15.90;99.90
6520;DHT22;3293;51.690;5.982;2022-10-15T10:44:43;15.80;99.90
6520;DHT22;3293;51.690;5.982;2022-10-15T10:49:48;15.80;99.90
6520;DHT22;3293;51.690;5.982;2022-10-15T10:59:54;15.70;99.90
6520;DHT22;3293;51.690;5.982;2022-10-15T11:04:55;15.70;99.90
6520;DHT22;3293;51.690;5.982;2022-10-15T11:10:13;15.80;99.90
6520;DHT22;3293;51.690;5.982;2022-10-15T11:20:48;15.90;99.90
6520;DHT22;3293;51.690;5.982;2022-10-15T11:31:09;16.00;99.90
6520;DHT22;3293;51.690;5.982;2022-10-15T11:36:22;16.00;99.90
6520;DHT22;3293;51.690;5.982;2022-10-15T11:41:49;16.00;99.90
6520;DHT22;3293;51.690;5.982;2022-10-15T11:47:06;16.10;99.90
6520;DHT22;3293;51.690;5.982;2022-10-15T11:57:16;16.30;99.90
6520;DHT22;3293;51.690;5.982;2022-10-15T12:07:29;16.40;99.90
6520;DHT22;3293;51.690;5.982;2022-10-15T12:13:01;16.60;99.90
6520;DHT22;3293;51.690;5.982;2022-10-15T12:18:22;16.60;99.90
6520;DHT22;3293;51.690;5.982;2022-10-15T12:28:47;16.80;99.90
6520;DHT22;3293;51.690;5.982;2022-10-15T12:33:55;16.80;99.90
6520;DHT22;3293;51.690;5.982;2022-10-15T12:39:17;17.00;99.90
6520;DHT22;3293;51.690;5.982;2022-10-15T12:54:32;17.60;99.90
6520;DHT22;3293;51.690;5.982;2022-10-15T13:04:46;17.70;99.90
6520;DHT22;3293;51.690;5.982;2022-10-15T13:09:47;17.70;99.90
6520;DHT22;3293;51.690;5.982;2022-10-15T13:14:51;17.90;99.90
6520;DHT22;3293;51.690;5.982;2022-10-15T13:20:03;18.00;99.90
6520;DHT22;3293;51.690;5.982;2022-10-15T13:25:03;18.10;99.90
6520;DHT22;3293;51.690;5.982;2022-10-15T13:30:13;18.10;99.90
6520;DHT22;3293;51.690;5.982;2022-10-15T13:35:18;18.10;99.90
6520;DHT22;3293;51.690;5.982;2022-10-15T13:40:25;18.10;99.90
6520;DHT22;3293;51.690;5.982;2022-10-15T13:45:25;18.20;99.90
6520;DHT22;3293;51.690;5.982;2022-10-15T13:50:33;18.20;99.90
6520;DHT22;3293;51.690;5.982;2022-10-15T13:55:38;18.10;99.90
6520;DHT22;3293;51.690;5.982;2022-10-15T14:00:47;18.30;99.90
6520;DHT22;3293;51.690;5.982;2022-10-15T14:05:50;18.30;99.90
6520;DHT22;3293;51.690;5.982;2022-10-15T14:10:52;18.30;99.90
6520;DHT22;3293;51.690;5.982;2022-10-15T14:21:16;18.50;99.90
6520;DHT22;3293;51.690;5.982;2022-10-15T14:26:22;18.60;99.90
6520;DHT22;3293;51.690;5.982;2022-10-15T14:31:32;18.30;99.90
6520;DHT22;3293;51.690;5.982;2022-10-15T14:36:40;18.10;99.90
6520;DHT22;3293;51.690;5.982;2022-10-15T14:42:00;18.00;99.90
6520;DHT22;3293;51.690;5.982;2022-10-15T14:47:02;17.80;99.90
6520;DHT22;3293;51.690;5.982;2022-10-15T14:52:07;17.60;99.90
6520;DHT22;3293;51.690;5.982;2022-10-15T14:57:23;17.40;99.90
6520;DHT22;3293;51.690;5.982;2022-10-15T15:02:25;17.20;99.90
6520;DHT22;3293;51.690;5.982;2022-10-15T15:07:26;17.20;99.90
6520;DHT22;3293;51.690;5.982;2022-10-15T15:12:27;17.10;99.90
6520;DHT22;3293;51.690;5.982;2022-10-15T15:17:29;16.90;99.90
6520;DHT22;3293;51.690;5.982;2022-10-15T15:22:30;16.80;99.90
6520;DHT22;3293;51.690;5.982;2022-10-15T15:27:31;16.80;99.90
6520;DHT22;3293;51.690;5.982;2022-10-15T15:32:36;16.80;99.90
6520;DHT22;3293;51.690;5.982;2022-10-15T15:37:36;16.60;99.90
6520;DHT22;3293;51.690;5.982;2022-10-15T15:42:44;16.40;99.90
6520;DHT22;3293;51.690;5.982;2022-10-15T15:47:44;16.30;99.90
6520;DHT22;3293;51.690;5.982;2022-10-15T15:52:45;16.20;99.90
6520;DHT22;3293;51.690;5.982;2022-10-15T15:57:46;16.10;99.90
6520;DHT22;3293;51.690;5.982;2022-10-15T16:02:46;15.90;99.90
6520;DHT22;3293;51.690;5.982;2022-10-15T16:07:46;15.90;99.90
6520;DHT22;3293;51.690;5.982;2022-10-15T16:12:46;15.70;99.90
6520;DHT22;3293;51.690;5.982;2022-10-15T16:17:45;15.50;99.90
6520;DHT22;3293;51.690;5.982;2022-10-15T16:22:50;15.20;99.90
6520;DHT22;3293;51.690;5.982;2022-10-15T16:27:50;14.90;99.90
6520;DHT22;3293;51.690;5.982;2022-10-15T16:32:55;14.70;99.90
6520;DHT22;3293;51.690;5.982;2022-10-15T16:37:55;14.40;99.90
6520;DHT22;3293;51.690;5.982;2022-10-15T16:42:55;14.20;99.90
6520;DHT22;3293;51.690;5.982;2022-10-15T16:47:55;13.90;99.90
6520;DHT22;3293;51.690;5.982;2022-10-15T16:52:55;13.80;99.90
6520;DHT22;3293;51.690;5.982;2022-10-15T16:57:55;13.70;99.90
6520;DHT22;3293;51.690;5.982;2022-10-15T17:02:55;13.60;99.90
6520;DHT22;3293;51.690;5.982;2022-10-15T17:07:55;13.40;99.90
6520;DHT22;3293;51.690;5.982;2022-10-15T17:12:55;13.30;99.90
6520;DHT22;3293;51.690;5.982;2022-10-15T17:17:55;13.20;99.90
6520;DHT22;3293;51.690;5.982;2022-10-15T17:22:56;13.10;99.90
6520;DHT22;3293;51.690;5.982;2022-10-15T17:27:56;13.00;99.90
6520;DHT22;3293;51.690;5.982;2022-10-15T17:32:56;12.90;99.90
6520;DHT22;3293;51.690;5.982;2022-10-15T17:37:59;12.80;99.90
6520;DHT22;3293;51.690;5.982;2022-10-15T17:42:59;12.80;99.90
6520;DHT22;3293;51.690;5.982;2022-10-15T17:47:59;12.70;99.90
6520;DHT22;3293;51.690;5.982;2022-10-15T17:52:59;12.60;99.90
6520;DHT22;3293;51.690;5.982;2022-10-15T17:58:01;12.50;99.90
6520;DHT22;3293;51.690;5.982;2022-10-15T18:03:01;12.40;99.90
6520;DHT22;3293;51.690;5.982;2022-10-15T18:08:01;12.40;99.90
6520;DHT22;3293;51.690;5.982;2022-10-15T18:13:03;12.30;99.90
6520;DHT22;3293;51.690;5.982;2022-10-15T18:18:04;12.30;99.90
6520;DHT22;3293;51.690;5.982;2022-10-15T18:23:04;12.30;99.90
6520;DHT22;3293;51.690;5.982;2022-10-15T18:28:05;12.20;99.90
6520;DHT22;3293;51.690;5.982;2022-10-15T18:33:07;12.20;99.90
6520;DHT22;3293;51.690;5.982;2022-10-15T18:38:08;12.20;99.90
6520;DHT22;3293;51.690;5.982;2022-10-15T18:43:08;12.10;99.90
6520;DHT22;3293;51.690;5.982;2022-10-15T18:48:08;12.10;99.90
6520;DHT22;3293;51.690;5.982;2022-10-15T18:53:07;12.00;99.90
6520;DHT22;3293;51.690;5.982;2022-10-15T18:58:07;12.00;99.90
6520;DHT22;3293;51.690;5.982;2022-10-15T19:03:09;12.00;99.90
6520;DHT22;3293;51.690;5.982;2022-10-15T19:08:08;11.90;99.90
6520;DHT22;3293;51.690;5.982;2022-10-15T19:13:08;11.90;99.90
6520;DHT22;3293;51.690;5.982;2022-10-15T19:18:08;12.00;99.90
6520;DHT22;3293;51.690;5.982;2022-10-15T19:23:10;12.10;99.90
6520;DHT22;3293;51.690;5.982;2022-10-15T19:28:09;12.10;99.90
6520;DHT22;3293;51.690;5.982;2022-10-15T19:33:09;12.20;99.90
6520;DHT22;3293;51.690;5.982;2022-10-15T19:38:10;12.20;99.90
6520;DHT22;3293;51.690;5.982;2022-10-15T19:43:10;12.20;99.90
6520;DHT22;3293;51.690;5.982;2022-10-15T19:48:14;12.10;99.90
6520;DHT22;3293;51.690;5.982;2022-10-15T19:53:16;12.10;99.90
6520;DHT22;3293;51.690;5.982;2022-10-15T19:58:16;12.00;99.90
6520;DHT22;3293;51.690;5.982;2022-10-15T20:03:16;11.90;99.90
6520;DHT22;3293;51.690;5.982;2022-10-15T20:08:17;11.90;99.90
6520;DHT22;3293;51.690;5.982;2022-10-15T20:13:19;11.80;99.90
6520;DHT22;3293;51.690;5.982;2022-10-15T20:18:20;11.80;99.90
6520;DHT22;3293;51.690;5.982;2022-10-15T20:23:20;11.80;99.90
6520;DHT22;3293;51.690;5.982;2022-10-15T20:28:22;11.90;99.90
6520;DHT22;3293;51.690;5.982;2022-10-15T20:33:22;11.90;99.90
6520;DHT22;3293;51.690;5.982;2022-10-15T20:38:22;11.90;99.90
6520;DHT22;3293;51.690;5.982;2022-10-15T20:43:22;11.90;99.90
6520;DHT22;3293;51.690;5.982;2022-10-15T20:48:24;11.90;99.90
6520;DHT22;3293;51.690;5.982;2022-10-15T20:53:26;12.00;99.90
6520;DHT22;3293;51.690;5.982;2022-10-15T20:58:27;12.00;99.90
6520;DHT22;3293;51.690;5.982;2022-10-15T21:03:27;11.90;99.90
6520;DHT22;3293;51.690;5.982;2022-10-15T21:08:29;11.90;99.90
6520;DHT22;3293;51.690;5.982;2022-10-15T21:13:29;11.80;99.90
6520;DHT22;3293;51.690;5.982;2022-10-15T21:18:30;11.80;99.90
6520;DHT22;3293;51.690;5.982;2022-10-15T21:23:31;11.90;99.90
6520;DHT22;3293;51.690;5.982;2022-10-15T21:28:31;11.90;99.90
6520;DHT22;3293;51.690;5.982;2022-10-15T21:33:32;11.90;99.90
6520;DHT22;3293;51.690;5.982;2022-10-15T21:38:32;11.90;99.90
6520;DHT22;3293;51.690;5.982;2022-10-15T21:43:32;12.00;99.90
6520;DHT22;3293;51.690;5.982;2022-10-15T21:48:32;12.00;99.90
6520;DHT22;3293;51.690;5.982;2022-10-15T21:53:32;12.00;99.90
6520;DHT22;3293;51.690;5.982;2022-10-15T21:58:33;12.00;99.90
6520;DHT22;3293;51.690;5.982;2022-10-15T22:03:35;12.10;99.90
6520;DHT22;3293;51.690;5.982;2022-10-15T22:08:35;12.00;99.90
6520;DHT22;3293;51.690;5.982;2022-10-15T22:13:36;12.10;99.90
6520;DHT22;3293;51.690;5.982;2022-10-15T22:18:37;12.00;99.90
6520;DHT22;3293;51.690;5.982;2022-10-15T22:23:37;12.00;99.90
6520;DHT22;3293;51.690;5.982;2022-10-15T22:28:37;11.90;99.90
6520;DHT22;3293;51.690;5.982;2022-10-15T22:33:38;11.90;99.90
6520;DHT22;3293;51.690;5.982;2022-10-15T22:38:40;11.80;99.90
6520;DHT22;3293;51.690;5.982;2022-10-15T22:43:40;11.70;99.90
6520;DHT22;3293;51.690;5.982;2022-10-15T22:48:41;11.60;99.90
6520;DHT22;3293;51.690;5.982;2022-10-15T22:53:42;11.60;99.90
6520;DHT22;3293;51.690;5.982;2022-10-15T22:58:42;11.60;99.90
6520;DHT22;3293;51.690;5.982;2022-10-15T23:03:45;11.60;99.90
6520;DHT22;3293;51.690;5.982;2022-10-15T23:08:45;11.60;99.90
6520;DHT22;3293;51.690;5.982;2022-10-15T23:13:46;11.60;99.90
6520;DHT22;3293;51.690;5.982;2022-10-15T23:18:55;11.70;99.90
6520;DHT22;3293;51.690;5.982;2022-10-15T23:23:55;11.70;99.90
6520;DHT22;3293;51.690;5.982;2022-10-15T23:28:57;11.70;99.90
6520;DHT22;3293;51.690;5.982;2022-10-15T23:33:59;11.80;99.90
6520;DHT22;3293;51.690;5.982;2022-10-15T23:39:02;11.70;99.90
6520;DHT22;3293;51.690;5.982;2022-10-15T23:44:02;11.80;99.90
6520;DHT22;3293;51.690;5.982;2022-10-15T23:49:03;11.90;99.90
6520;DHT22;3293;51.690;5.982;2022-10-15T23:54:08;11.80;99.90
6520;DHT22;3293;51.690;5.982;2022-10-15T23:59:09;11.80;99.90
